Orenge 7 — JL6148 — position and weather

sailwx.info

Track history (hours):
 
Tides and Currents Weather Stations Pressure Air Temp Water Temp Dewpoint Dewpoint Depression Visibility Wind Speed Wind Dir Waves Ship Positions

Orenge 7

Last reported at 2016-Jul-23 14:33 UTC. Time now 2016-Jul-24 02:57 UTC.
Position N 34°37' E 134°56'.

Length 163 m; draft 4.9 m.

Type: Passenger vessel. MMSI: 431500186.

Date/timePositionNaut miles runAvg speedWind from/ knotsBaromVisibWave heightAir tempDewpointWater temp
2016-Jul-23 14:33N 34°37' E 134°56'1818.6
2016-Jul-23 13:33N 34°37' E 135°19'6 4.7
2016-Jul-23 12:16N 34°37' E 135°26'0 0.0
2016-Jul-23 11:28N 34°37' E 135°26'0 0.0
2016-Jul-23 10:16N 34°37' E 135°26'0 0.0
2016-Jul-23 09:28N 34°37' E 135°26'0 0.0
2016-Jul-23 08:28N 34°37' E 135°26'0 0.0
2016-Jul-23 07:28N 34°37' E 135°26'0 0.0
2016-Jul-23 06:22N 34°37' E 135°26'0 0.0
2016-Jul-23 04:28N 34°37' E 135°26'0 0.0
2016-Jul-23 03:28N 34°37' E 135°26'0 0.0
2016-Jul-23 02:22N 34°37' E 135°26'0 0.0
2016-Jul-23 01:28N 34°37' E 135°26'0 0.0
2016-Jul-23 00:28N 34°37' E 135°26'0 0.0
2016-Jul-22 23:10N 34°37' E 135°26'0 0.0
2016-Jul-22 22:22N 34°37' E 135°26'0 0.0
2016-Jul-22 21:28N 34°37' E 135°26'4 4.9
2016-Jul-22 20:33N 34°37' E 135°20'1818.1
2016-Jul-22 19:33N 34°37' E 134°58'2 0.1
2016-Jul-21 14:34N 34°36' E 134°56'1918.8
2016-Jul-21 13:34N 34°37' E 135°18'6 6.1
2016-Jul-21 12:33N 34°37' E 135°26'0 0.0
2016-Jul-21 11:21N 34°37' E 135°26'0 0.0
2016-Jul-21 10:33N 34°37' E 135°26'0 0.0
2016-Jul-21 09:33N 34°37' E 135°26'0 0.0
2016-Jul-21 08:27N 34°37' E 135°26'0 0.0
2016-Jul-21 07:27N 34°37' E 135°26'0 0.0
2016-Jul-21 06:21N 34°37' E 135°26'0 0.0
2016-Jul-21 05:33N 34°37' E 135°26'0 0.0
2016-Jul-21 04:33N 34°37' E 135°26'0 0.0
2016-Jul-21 03:33N 34°37' E 135°26'0 0.0
2016-Jul-21 02:27N 34°37' E 135°26'0 0.0
2016-Jul-21 01:33N 34°37' E 135°26'0 0.0
2016-Jul-21 00:27N 34°37' E 135°26'0 0.0
2016-Jul-20 23:33N 34°37' E 135°26'0 0.0
2016-Jul-20 22:33N 34°37' E 135°26'0 0.0
2016-Jul-20 21:33N 34°37' E 135°26'5 5.5
2016-Jul-20 20:34N 34°36' E 135°20'1717.4
2016-Jul-20 19:34N 34°37' E 134°58'3 0.1
2016-Jul-19 14:33N 34°36' E 134°55'1919.4
2016-Jul-19 13:33N 34°37' E 135°18'6 6.1
2016-Jul-19 12:31N 34°37' E 135°26'0 0.0
2016-Jul-19 11:31N 34°37' E 135°26'0 0.0
2016-Jul-19 10:31N 34°37' E 135°26'0 0.0
2016-Jul-19 09:31N 34°37' E 135°26'0 0.0
2016-Jul-19 08:31N 34°37' E 135°26'0 0.0
2016-Jul-19 07:31N 34°37' E 135°26'0 0.0
2016-Jul-19 04:19N 34°37' E 135°26'0 0.0
2016-Jul-19 03:31N 34°37' E 135°26'0 0.0
2016-Jul-19 02:28N 34°37' E 135°26'0 0.0
2016-Jul-19 01:22N 34°37' E 135°26'0 0.0
2016-Jul-19 00:28N 34°37' E 135°26'0 0.0
2016-Jul-18 23:28N 34°37' E 135°26'0 0.0
2016-Jul-18 22:22N 34°37' E 135°26'0 0.0
2016-Jul-18 21:22N 34°37' E 135°26'6 7.0
2016-Jul-18 20:33N 34°35' E 135°19'1717.4
2016-Jul-18 19:33N 34°37' E 134°58'2 0.1
2016-Jul-17 14:33N 34°36' E 134°56'1918.5
2016-Jul-17 13:33N 34°36' E 135°18'6 6.0
2016-Jul-17 12:28N 34°37' E 135°26'0 0.0
2016-Jul-17 11:28N 34°37' E 135°26'0 0.0
2016-Jul-17 10:28N 34°37' E 135°26'0 0.0
2016-Jul-17 09:28N 34°37' E 135°26'0 0.0
2016-Jul-17 08:28N 34°37' E 135°26'0 0.0
2016-Jul-17 07:28N 34°37' E 135°26'0 0.0
2016-Jul-17 06:22N 34°37' E 135°26'0 0.0
2016-Jul-17 04:22N 34°37' E 135°26'0 0.0
2016-Jul-17 03:28N 34°37' E 135°26'0 0.0
2016-Jul-17 02:22N 34°37' E 135°26'0 0.0
2016-Jul-17 01:28N 34°37' E 135°26'0 0.0
2016-Jul-17 00:22N 34°37' E 135°26'0 0.0
2016-Jul-16 23:28N 34°37' E 135°26'0 0.0
2016-Jul-16 22:28N 34°37' E 135°26'0 0.0
2016-Jul-16 21:28N 34°37' E 135°26'5 5.2
2016-Jul-16 20:33N 34°36' E 135°20'1817.5
2016-Jul-16 19:33N 34°37' E 134°59'1 0.0
2016-Jul-15 14:33N 34°37' E 134°58'1717.5
2016-Jul-15 13:33N 34°37' E 135°19'5 5.1
2016-Jul-15 12:31N 34°37' E 135°26'0 0.0
2016-Jul-15 11:31N 34°37' E 135°26'0 0.0
2016-Jul-15 10:19N 34°37' E 135°26'0 0.0
2016-Jul-15 09:31N 34°37' E 135°26'0 0.0
2016-Jul-15 08:31N 34°37' E 135°26'0 0.0
2016-Jul-15 04:07N 34°37' E 135°26'0 0.0
2016-Jul-15 03:31N 34°37' E 135°26'0 0.0
2016-Jul-15 01:31N 34°37' E 135°26'0 0.0
2016-Jul-15 00:19N 34°37' E 135°26'0 0.0
2016-Jul-14 23:31N 34°37' E 135°26'0 0.0
2016-Jul-14 22:31N 34°37' E 135°26'0 0.0
2016-Jul-14 21:19N 34°37' E 135°26'5 6.8
2016-Jul-14 20:34N 34°36' E 135°20'1616.3
2016-Jul-14 19:33N 34°37' E 134°60'2 0.1
2016-Jul-13 14:33N 34°37' E 134°58'  
Track history (hours):
 
Tides and Currents Weather Stations Pressure Air Temp Water Temp Dewpoint Dewpoint Depression Visibility Wind Speed Wind Dir Waves Ship Positions

Orenge 7

Last reported at 2016-Jul-23 14:33 UTC. Time now 2016-Jul-24 02:57 UTC.
Position N 34°37' E 134°56'.

Length 163 m; draft 4.9 m.

Type: Passenger vessel. MMSI: 431500186.

Date/timePositionNaut miles runAvg speedWind from/ knotsBaromVisibWave heightAir tempDewpointWater temp
2016-Jul-23 14:33N 34°37' E 134°56'1818.6
2016-Jul-23 13:33N 34°37' E 135°19'6 4.7
2016-Jul-23 12:16N 34°37' E 135°26'0 0.0
2016-Jul-23 11:28N 34°37' E 135°26'0 0.0
2016-Jul-23 10:16N 34°37' E 135°26'0 0.0
2016-Jul-23 09:28N 34°37' E 135°26'0 0.0
2016-Jul-23 08:28N 34°37' E 135°26'0 0.0
2016-Jul-23 07:28N 34°37' E 135°26'0 0.0
2016-Jul-23 06:22N 34°37' E 135°26'0 0.0
2016-Jul-23 04:28N 34°37' E 135°26'0 0.0
2016-Jul-23 03:28N 34°37' E 135°26'0 0.0
2016-Jul-23 02:22N 34°37' E 135°26'0 0.0
2016-Jul-23 01:28N 34°37' E 135°26'0 0.0
2016-Jul-23 00:28N 34°37' E 135°26'0 0.0
2016-Jul-22 23:10N 34°37' E 135°26'0 0.0
2016-Jul-22 22:22N 34°37' E 135°26'0 0.0
2016-Jul-22 21:28N 34°37' E 135°26'4 4.9
2016-Jul-22 20:33N 34°37' E 135°20'1818.1
2016-Jul-22 19:33N 34°37' E 134°58'2 0.1
2016-Jul-21 14:34N 34°36' E 134°56'1918.8
2016-Jul-21 13:34N 34°37' E 135°18'6 6.1
2016-Jul-21 12:33N 34°37' E 135°26'0 0.0
2016-Jul-21 11:21N 34°37' E 135°26'0 0.0
2016-Jul-21 10:33N 34°37' E 135°26'0 0.0
2016-Jul-21 09:33N 34°37' E 135°26'0 0.0
2016-Jul-21 08:27N 34°37' E 135°26'0 0.0
2016-Jul-21 07:27N 34°37' E 135°26'0 0.0
2016-Jul-21 06:21N 34°37' E 135°26'0 0.0
2016-Jul-21 05:33N 34°37' E 135°26'0 0.0
2016-Jul-21 04:33N 34°37' E 135°26'0 0.0
2016-Jul-21 03:33N 34°37' E 135°26'0 0.0
2016-Jul-21 02:27N 34°37' E 135°26'0 0.0
2016-Jul-21 01:33N 34°37' E 135°26'0 0.0
2016-Jul-21 00:27N 34°37' E 135°26'0 0.0
2016-Jul-20 23:33N 34°37' E 135°26'0 0.0
2016-Jul-20 22:33N 34°37' E 135°26'0 0.0
2016-Jul-20 21:33N 34°37' E 135°26'5 5.5
2016-Jul-20 20:34N 34°36' E 135°20'1717.4
2016-Jul-20 19:34N 34°37' E 134°58'3 0.1
2016-Jul-19 14:33N 34°36' E 134°55'1919.4
2016-Jul-19 13:33N 34°37' E 135°18'6 6.1
2016-Jul-19 12:31N 34°37' E 135°26'0 0.0
2016-Jul-19 11:31N 34°37' E 135°26'0 0.0
2016-Jul-19 10:31N 34°37' E 135°26'0 0.0
2016-Jul-19 09:31N 34°37' E 135°26'0 0.0
2016-Jul-19 08:31N 34°37' E 135°26'0 0.0
2016-Jul-19 07:31N 34°37' E 135°26'0 0.0
2016-Jul-19 04:19N 34°37' E 135°26'0 0.0
2016-Jul-19 03:31N 34°37' E 135°26'0 0.0
2016-Jul-19 02:28N 34°37' E 135°26'0 0.0
2016-Jul-19 01:22N 34°37' E 135°26'0 0.0
2016-Jul-19 00:28N 34°37' E 135°26'0 0.0
2016-Jul-18 23:28N 34°37' E 135°26'0 0.0
2016-Jul-18 22:22N 34°37' E 135°26'0 0.0
2016-Jul-18 21:22N 34°37' E 135°26'6 7.0
2016-Jul-18 20:33N 34°35' E 135°19'1717.4
2016-Jul-18 19:33N 34°37' E 134°58'2 0.1
2016-Jul-17 14:33N 34°36' E 134°56'1918.5
2016-Jul-17 13:33N 34°36' E 135°18'6 6.0
2016-Jul-17 12:28N 34°37' E 135°26'0 0.0
2016-Jul-17 11:28N 34°37' E 135°26'0 0.0
2016-Jul-17 10:28N 34°37' E 135°26'0 0.0
2016-Jul-17 09:28N 34°37' E 135°26'0 0.0
2016-Jul-17 08:28N 34°37' E 135°26'0 0.0
2016-Jul-17 07:28N 34°37' E 135°26'0 0.0
2016-Jul-17 06:22N 34°37' E 135°26'0 0.0
2016-Jul-17 04:22N 34°37' E 135°26'0 0.0
2016-Jul-17 03:28N 34°37' E 135°26'0 0.0
2016-Jul-17 02:22N 34°37' E 135°26'0 0.0
2016-Jul-17 01:28N 34°37' E 135°26'0 0.0
2016-Jul-17 00:22N 34°37' E 135°26'0 0.0
2016-Jul-16 23:28N 34°37' E 135°26'0 0.0
2016-Jul-16 22:28N 34°37' E 135°26'0 0.0
2016-Jul-16 21:28N 34°37' E 135°26'5 5.2
2016-Jul-16 20:33N 34°36' E 135°20'1817.5
2016-Jul-16 19:33N 34°37' E 134°59'1 0.0
2016-Jul-15 14:33N 34°37' E 134°58'1717.5
2016-Jul-15 13:33N 34°37' E 135°19'5 5.1
2016-Jul-15 12:31N 34°37' E 135°26'0 0.0
2016-Jul-15 11:31N 34°37' E 135°26'0 0.0
2016-Jul-15 10:19N 34°37' E 135°26'0 0.0
2016-Jul-15 09:31N 34°37' E 135°26'0 0.0
2016-Jul-15 08:31N 34°37' E 135°26'0 0.0
2016-Jul-15 04:07N 34°37' E 135°26'0 0.0
2016-Jul-15 03:31N 34°37' E 135°26'0 0.0
2016-Jul-15 01:31N 34°37' E 135°26'0 0.0
2016-Jul-15 00:19N 34°37' E 135°26'0 0.0
2016-Jul-14 23:31N 34°37' E 135°26'0 0.0
2016-Jul-14 22:31N 34°37' E 135°26'0 0.0
2016-Jul-14 21:19N 34°37' E 135°26'5 6.8
2016-Jul-14 20:34N 34°36' E 135°20'1616.3
2016-Jul-14 19:33N 34°37' E 134°60'2 0.1
2016-Jul-13 14:33N 34°37' E 134°58'  

Dump ship's entire track history